createdAt,value
2024-04-08T00:01:03.538Z,6.99
2024-04-08T00:03:30.703Z,6.98
2024-04-08T00:05:57.749Z,6.98
2024-04-08T00:08:25.167Z,6.97
2024-04-08T00:10:52.065Z,6.90
2024-04-08T00:13:18.919Z,6.87
2024-04-08T00:15:46.075Z,6.90
2024-04-08T00:18:14.158Z,6.84
2024-04-08T00:20:41.073Z,6.77
2024-04-08T00:23:08.131Z,6.75
2024-04-08T00:25:35.409Z,6.73
2024-04-08T00:28:02.236Z,6.74
2024-04-08T00:30:29.104Z,6.69
2024-04-08T00:32:55.975Z,6.73
2024-04-08T00:35:22.869Z,6.65
2024-04-08T00:37:50.156Z,6.60
2024-04-08T00:40:17.279Z,6.57
2024-04-08T00:42:46.471Z,6.58
2024-04-08T00:45:13.558Z,6.52
2024-04-08T00:47:40.497Z,6.52
2024-04-08T00:50:07.795Z,6.47
2024-04-08T00:52:35.091Z,6.41
2024-04-08T00:55:02.299Z,6.41
2024-04-08T00:57:30.835Z,6.40
2024-04-08T00:59:58.807Z,6.36
2024-04-08T01:02:25.822Z,6.38
2024-04-08T01:04:52.726Z,6.29
2024-04-08T01:07:19.580Z,6.22
2024-04-08T01:09:46.420Z,6.22
2024-04-08T01:12:13.310Z,6.18
2024-04-08T01:14:41.122Z,6.18
2024-04-08T01:17:08.437Z,6.10
2024-04-08T01:19:35.296Z,6.18
2024-04-08T01:22:02.282Z,6.16
2024-04-08T01:24:29.423Z,6.18
2024-04-08T01:26:56.259Z,6.22
2024-04-08T01:29:23.247Z,6.18
2024-04-08T01:31:50.158Z,6.19
2024-04-08T01:34:17.024Z,6.14
2024-04-08T01:36:45.296Z,6.16
2024-04-08T01:39:12.326Z,6.12
2024-04-08T01:41:39.264Z,6.09
2024-04-08T01:44:06.512Z,5.98
2024-04-08T01:46:33.542Z,5.97
2024-04-08T01:49:00.805Z,5.89
2024-04-08T01:51:32.009Z,5.93
2024-04-08T01:54:00.737Z,5.89
2024-04-08T01:56:30.339Z,5.87
2024-04-08T01:58:57.252Z,5.80
2024-04-08T02:01:24.512Z,5.78
2024-04-08T02:03:51.536Z,5.79
2024-04-08T02:06:20.686Z,5.77
2024-04-08T02:08:47.608Z,5.70
2024-04-08T02:11:14.918Z,5.71
2024-04-08T02:13:42.995Z,5.67
2024-04-08T02:16:10.242Z,5.60
2024-04-08T02:18:37.594Z,5.63
2024-04-08T02:21:04.692Z,5.57
2024-04-08T02:23:31.545Z,5.57
2024-04-08T02:25:59.495Z,5.52
2024-04-08T02:28:26.508Z,5.49
2024-04-08T02:30:53.700Z,5.50
2024-04-08T02:33:20.627Z,5.43
2024-04-08T02:35:47.617Z,5.44
2024-04-08T02:38:14.602Z,5.40
2024-04-08T02:40:41.604Z,5.45
2024-04-08T02:43:11.725Z,5.49
2024-04-08T02:45:41.692Z,5.44
2024-04-08T02:48:09.313Z,5.46
2024-04-08T02:50:36.322Z,5.41
2024-04-08T02:53:03.255Z,5.39
2024-04-08T02:55:30.107Z,5.35
2024-04-08T02:57:57.099Z,5.38
2024-04-08T03:00:25.361Z,5.43
2024-04-08T03:02:52.268Z,5.43
2024-04-08T03:05:19.851Z,5.37
2024-04-08T03:07:46.809Z,5.33
2024-04-08T03:10:13.714Z,5.33
2024-04-08T03:12:40.670Z,5.32
2024-04-08T03:15:07.577Z,5.29
2024-04-08T03:17:34.713Z,5.33
2024-04-08T03:20:01.587Z,5.32
2024-04-08T03:22:29.196Z,5.32
2024-04-08T03:24:56.875Z,5.29
2024-04-08T03:27:23.907Z,5.34
2024-04-08T03:29:54.075Z,5.26
2024-04-08T03:32:20.974Z,5.24
2024-04-08T03:34:47.838Z,5.20
2024-04-08T03:37:14.867Z,5.21
2024-04-08T03:39:41.770Z,5.18
2024-04-08T03:42:09.406Z,5.07
2024-04-08T03:44:36.607Z,5.12
2024-04-08T03:47:03.690Z,5.11
2024-04-08T03:49:30.548Z,5.13
2024-04-08T03:51:57.504Z,5.14
2024-04-08T03:54:24.467Z,5.13
2024-04-08T03:56:51.514Z,5.09
2024-04-08T03:59:19.372Z,5.18
2024-04-08T04:01:46.216Z,5.18
2024-04-08T04:04:13.088Z,5.12
2024-04-08T04:06:40.213Z,5.09
2024-04-08T04:09:07.282Z,5.05
2024-04-08T04:11:34.433Z,5.10
2024-04-08T04:14:01.377Z,5.09
2024-04-08T04:16:28.556Z,5.11
2024-04-08T04:18:55.771Z,5.11
2024-04-08T04:21:23.023Z,5.14
2024-04-08T04:23:50.257Z,5.14
2024-04-08T04:26:17.124Z,5.12
2024-04-08T04:28:44.052Z,5.02
2024-04-08T04:31:10.917Z,5.18
2024-04-08T04:33:37.909Z,5.15
2024-04-08T04:36:05.158Z,5.14
2024-04-08T04:38:32.001Z,5.17
2024-04-08T04:41:06.286Z,5.18
2024-04-08T04:43:33.922Z,5.19
2024-04-08T04:46:01.048Z,5.24
2024-04-08T04:48:28.334Z,5.30
2024-04-08T04:50:55.607Z,5.26
2024-04-08T04:53:22.751Z,5.36
2024-04-08T04:55:56.000Z,5.43
2024-04-08T04:58:23.639Z,5.48
2024-04-08T05:00:51.520Z,5.46
2024-04-08T05:03:20.369Z,5.53
2024-04-08T05:05:56.945Z,5.60
2024-04-08T05:08:24.947Z,5.66
2024-04-08T05:10:52.301Z,5.68
2024-04-08T05:13:19.991Z,5.77
2024-04-08T05:16:00.735Z,5.88
2024-04-08T05:18:29.366Z,5.93
2024-04-08T05:21:03.705Z,6.01
2024-04-08T05:23:32.208Z,6.09
2024-04-08T05:25:59.711Z,6.17
2024-04-08T05:28:26.762Z,6.19
2024-04-08T05:30:53.694Z,6.32
2024-04-08T05:33:21.806Z,6.39
2024-04-08T05:35:48.912Z,6.43
2024-04-08T05:38:18.899Z,6.50
2024-04-08T05:40:45.863Z,6.56
2024-04-08T05:43:17.204Z,6.67
2024-04-08T05:45:44.626Z,6.71
2024-04-08T05:48:11.642Z,6.78
2024-04-08T05:50:38.761Z,6.82
2024-04-08T05:53:05.752Z,6.96
2024-04-08T05:55:33.026Z,7.01
2024-04-08T05:58:01.001Z,7.12
2024-04-08T06:00:28.353Z,7.23
2024-04-08T06:02:56.329Z,7.26
2024-04-08T06:05:26.127Z,7.42
2024-04-08T06:07:54.494Z,7.50
2024-04-08T06:10:23.094Z,7.67
2024-04-08T06:12:50.766Z,7.75
2024-04-08T06:15:17.966Z,7.89
2024-04-08T06:17:45.211Z,8.02
2024-04-08T06:20:12.440Z,8.11
2024-04-08T06:22:39.341Z,8.28
2024-04-08T06:25:07.875Z,8.42
2024-04-08T06:27:35.149Z,8.52
2024-04-08T06:30:02.919Z,8.63
2024-04-08T06:32:30.260Z,8.79
2024-04-08T06:34:57.096Z,8.94
2024-04-08T06:37:24.023Z,9.15
2024-04-08T06:39:51.174Z,9.27
2024-04-08T06:42:19.387Z,9.51
2024-04-08T06:44:52.900Z,9.67
2024-04-08T06:47:23.022Z,9.90
2024-04-08T06:49:50.151Z,10.05
2024-04-08T06:52:17.069Z,10.22
2024-04-08T06:54:45.115Z,10.45
2024-04-08T06:57:12.000Z,10.63
2024-04-08T06:59:39.590Z,11.04
2024-04-08T07:02:07.004Z,11.45
2024-04-08T07:04:34.067Z,11.81
2024-04-08T07:07:01.478Z,12.23
2024-04-08T07:09:30.967Z,12.58
2024-04-08T07:12:02.511Z,13.07
2024-04-08T07:14:29.623Z,13.46
2024-04-08T07:16:56.595Z,13.81
2024-04-08T07:19:23.623Z,14.32
2024-04-08T07:21:53.387Z,14.76
2024-04-08T07:24:21.815Z,15.13
2024-04-08T07:26:48.801Z,15.52
2024-04-08T07:29:16.463Z,15.90
2024-04-08T07:31:43.382Z,16.26
2024-04-08T07:34:10.785Z,16.53
2024-04-08T07:36:37.723Z,16.90
2024-04-08T07:39:04.665Z,17.13
2024-04-08T07:41:31.676Z,17.37
2024-04-08T07:43:58.597Z,17.71
2024-04-08T07:46:25.511Z,17.97
2024-04-08T07:48:52.463Z,18.26
2024-04-08T07:51:19.844Z,18.52
2024-04-08T07:53:46.871Z,18.74
2024-04-08T07:56:13.962Z,18.90
2024-04-08T07:58:42.092Z,19.15
2024-04-08T08:01:09.208Z,19.34
2024-04-08T08:03:36.692Z,19.53
2024-04-08T08:06:07.104Z,19.74
2024-04-08T08:08:36.068Z,19.91
2024-04-08T08:11:06.053Z,20.10
2024-04-08T08:13:34.276Z,20.33
2024-04-08T08:16:01.970Z,20.52
2024-04-08T08:18:30.591Z,20.56
2024-04-08T08:20:59.662Z,20.67
2024-04-08T08:23:26.684Z,20.85
2024-04-08T08:25:54.567Z,20.95
2024-04-08T08:28:22.685Z,21.02
2024-04-08T08:30:50.180Z,21.16
2024-04-08T08:33:17.194Z,21.26
2024-04-08T08:35:44.178Z,21.50
2024-04-08T08:38:11.456Z,21.68
2024-04-08T08:40:44.428Z,21.87
2024-04-08T08:43:12.643Z,22.01
2024-04-08T08:45:43.312Z,22.17
2024-04-08T08:48:10.349Z,22.22
2024-04-08T08:50:38.587Z,22.34
2024-04-08T08:53:06.226Z,22.46
2024-04-08T08:55:34.297Z,22.47
2024-04-08T08:58:05.888Z,22.50
2024-04-08T09:00:33.300Z,22.61
2024-04-08T09:03:01.797Z,22.64
2024-04-08T09:05:28.718Z,22.69
2024-04-08T09:07:55.643Z,22.64
2024-04-08T09:10:24.604Z,22.76
2024-04-08T09:12:53.354Z,23.01
2024-04-08T09:15:20.242Z,23.22
2024-04-08T09:17:47.415Z,23.43
2024-04-08T09:20:15.139Z,23.51
2024-04-08T09:22:42.333Z,23.58
2024-04-08T09:25:13.981Z,23.63
2024-04-08T09:27:41.101Z,23.76
2024-04-08T09:30:08.725Z,23.99
2024-04-08T09:32:36.797Z,24.14
2024-04-08T09:35:08.332Z,24.23
2024-04-08T09:37:35.378Z,24.38
2024-04-08T09:40:04.992Z,24.53
2024-04-08T09:42:34.919Z,24.59
2024-04-08T09:45:04.203Z,24.70
2024-04-08T09:47:32.239Z,24.80
2024-04-08T09:50:00.972Z,24.91
2024-04-08T09:52:29.171Z,25.03
2024-04-08T09:54:57.804Z,25.13
2024-04-08T09:57:28.960Z,25.18
2024-04-08T09:59:58.247Z,25.10
2024-04-08T10:02:38.109Z,25.08
2024-04-08T10:05:06.516Z,25.10
2024-04-08T10:07:34.355Z,25.04
2024-04-08T10:10:11.069Z,25.00
2024-04-08T10:12:38.507Z,25.05
2024-04-08T10:15:16.467Z,25.07
2024-04-08T10:17:43.927Z,25.21
2024-04-08T10:20:20.602Z,25.30
2024-04-08T10:22:48.285Z,25.36
2024-04-08T10:25:38.144Z,25.43
2024-04-08T10:28:07.484Z,25.42
2024-04-08T10:30:45.399Z,25.40
2024-04-08T10:33:12.975Z,25.34
2024-04-08T10:35:40.421Z,25.36
2024-04-08T10:38:08.568Z,25.27
2024-04-08T10:40:35.814Z,25.22
2024-04-08T10:43:03.132Z,25.15
2024-04-08T10:45:30.195Z,25.04
2024-04-08T10:48:04.049Z,25.00
2024-04-08T10:50:35.256Z,25.10
2024-04-08T10:53:04.001Z,25.11
2024-04-08T10:55:31.192Z,25.09
2024-04-08T10:57:58.252Z,25.18
2024-04-08T11:00:26.108Z,25.12
2024-04-08T11:02:53.256Z,25.05
2024-04-08T11:05:23.057Z,25.14
2024-04-08T11:07:50.236Z,25.14
2024-04-08T11:10:18.723Z,25.06
2024-04-08T11:12:46.551Z,24.78
2024-04-08T11:15:15.486Z,24.82
2024-04-08T11:17:43.158Z,25.00
2024-04-08T11:20:14.352Z,25.07
2024-04-08T11:22:41.571Z,25.22
2024-04-08T11:25:16.911Z,25.36
2024-04-08T11:27:45.380Z,25.45
2024-04-08T11:30:15.695Z,25.42
2024-04-08T11:32:43.252Z,25.26
2024-04-08T11:35:10.876Z,25.24
2024-04-08T11:37:38.052Z,25.28
2024-04-08T11:40:08.617Z,25.34
2024-04-08T11:42:35.746Z,25.39
2024-04-08T11:45:08.577Z,25.44
2024-04-08T11:47:37.083Z,25.46
2024-04-08T11:50:05.329Z,25.50
2024-04-08T11:52:32.717Z,25.55
2024-04-08T11:55:01.763Z,25.59
2024-04-08T11:57:30.794Z,25.51
2024-04-08T11:59:57.938Z,25.37
2024-04-08T12:02:25.184Z,25.19
2024-04-08T12:04:53.995Z,25.11
2024-04-08T12:07:21.279Z,25.13
2024-04-08T12:09:48.270Z,25.17
2024-04-08T12:12:15.387Z,25.24
2024-04-08T12:14:43.241Z,25.28
2024-04-08T12:17:10.805Z,25.32
2024-04-08T12:19:38.118Z,25.18
2024-04-08T12:22:05.220Z,25.03
2024-04-08T12:24:32.085Z,24.92
2024-04-08T12:26:58.995Z,24.88
2024-04-08T12:29:25.932Z,24.79
2024-04-08T12:31:53.819Z,24.90
2024-04-08T12:34:20.738Z,24.99
2024-04-08T12:36:47.657Z,25.11
2024-04-08T12:39:14.911Z,25.17
2024-04-08T12:41:41.814Z,25.23
2024-04-08T12:44:10.570Z,25.32
2024-04-08T12:46:37.692Z,25.31
2024-04-08T12:49:04.794Z,25.35
2024-04-08T12:51:32.034Z,25.42
2024-04-08T12:53:59.246Z,25.50
2024-04-08T12:56:26.282Z,25.49
2024-04-08T12:58:57.792Z,25.46
2024-04-08T13:01:26.353Z,25.45
2024-04-08T13:03:54.443Z,25.44
2024-04-08T13:06:21.885Z,25.56
2024-04-08T13:08:49.300Z,25.61
2024-04-08T13:11:17.017Z,25.65
2024-04-08T13:13:47.018Z,25.68
2024-04-08T13:16:16.074Z,25.73
2024-04-08T13:18:44.396Z,25.68
2024-04-08T13:21:12.425Z,25.58
2024-04-08T13:23:40.494Z,25.59
2024-04-08T13:26:11.127Z,25.55
2024-04-08T13:28:38.108Z,25.54
2024-04-08T13:31:05.413Z,25.59
2024-04-08T13:33:32.617Z,25.55
2024-04-08T13:36:00.680Z,25.52
2024-04-08T13:38:28.690Z,25.45
2024-04-08T13:40:55.575Z,25.45
2024-04-08T13:43:22.499Z,25.42
2024-04-08T13:45:49.649Z,25.40
2024-04-08T13:48:16.667Z,25.36
2024-04-08T13:50:43.965Z,25.25
2024-04-08T13:53:11.072Z,25.11
2024-04-08T13:55:39.644Z,25.14
2024-04-08T13:58:07.244Z,25.19
2024-04-08T14:00:34.950Z,25.22
2024-04-08T14:03:02.070Z,25.20
2024-04-08T14:05:29.050Z,25.15
2024-04-08T14:07:55.919Z,25.21
2024-04-08T14:10:22.773Z,25.18
2024-04-08T14:12:49.658Z,25.12
2024-04-08T14:15:17.628Z,25.16
2024-04-08T14:17:44.858Z,25.17
2024-04-08T14:20:11.956Z,25.12
2024-04-08T14:22:39.611Z,25.08
2024-04-08T14:25:07.139Z,25.09
2024-04-08T14:27:34.807Z,25.06
2024-04-08T14:30:02.101Z,25.04
2024-04-08T14:32:29.211Z,25.02
2024-04-08T14:34:56.802Z,24.96
2024-04-08T14:37:42.563Z,24.91
2024-04-08T14:40:11.356Z,24.85
2024-04-08T14:42:38.913Z,24.83
2024-04-08T14:45:06.390Z,24.78
2024-04-08T14:47:33.659Z,24.72
2024-04-08T14:50:00.839Z,24.62
2024-04-08T14:52:33.543Z,24.60
2024-04-08T14:55:07.423Z,24.50
2024-04-08T14:57:35.077Z,24.44
2024-04-08T15:00:02.254Z,24.33
2024-04-08T15:02:29.352Z,24.27
2024-04-08T15:04:56.355Z,24.18
2024-04-08T15:07:28.049Z,24.09
2024-04-08T15:09:56.554Z,24.03
2024-04-08T15:12:23.954Z,23.82
2024-04-08T15:14:50.995Z,23.72
2024-04-08T15:17:20.887Z,23.70
2024-04-08T15:19:49.497Z,23.61
2024-04-08T15:22:16.483Z,23.46
2024-04-08T15:24:45.002Z,23.43
2024-04-08T15:27:14.183Z,23.37
2024-04-08T15:29:43.909Z,23.34
2024-04-08T15:32:13.260Z,23.22
2024-04-08T15:34:42.320Z,23.17
2024-04-08T15:37:10.884Z,23.09
2024-04-08T15:39:38.216Z,22.93
2024-04-08T15:42:05.539Z,22.83
2024-04-08T15:44:32.571Z,22.74
2024-04-08T15:46:59.643Z,22.58
2024-04-08T15:49:26.779Z,22.49
2024-04-08T15:51:57.477Z,22.43
2024-04-08T15:54:25.515Z,22.30
2024-04-08T15:56:56.111Z,22.22
2024-04-08T15:59:23.069Z,22.06
2024-04-08T16:01:50.140Z,21.99
2024-04-08T16:04:17.345Z,21.82
2024-04-08T16:06:46.000Z,21.70
2024-04-08T16:09:14.125Z,21.56
2024-04-08T16:11:41.328Z,21.34
2024-04-08T16:14:08.359Z,21.29
2024-04-08T16:16:36.020Z,21.16
2024-04-08T16:19:02.900Z,21.02
2024-04-08T16:21:29.919Z,20.89
2024-04-08T16:23:57.501Z,20.74
2024-04-08T16:26:25.770Z,20.62
2024-04-08T16:28:59.840Z,20.45
2024-04-08T16:31:33.437Z,20.23
2024-04-08T16:34:01.623Z,20.14
2024-04-08T16:36:30.612Z,20.00
2024-04-08T16:38:58.961Z,19.84
2024-04-08T16:41:26.319Z,19.67
2024-04-08T16:43:53.375Z,19.50
2024-04-08T16:46:24.227Z,19.30
2024-04-08T16:48:51.858Z,19.15
2024-04-08T16:51:20.451Z,19.01
2024-04-08T16:53:47.542Z,18.83
2024-04-08T16:56:14.459Z,18.67
2024-04-08T16:58:41.342Z,18.45
2024-04-08T17:01:08.302Z,18.34
2024-04-08T17:03:35.998Z,18.13
2024-04-08T17:06:04.742Z,17.97
2024-04-08T17:08:32.744Z,17.83
2024-04-08T17:11:02.505Z,17.63
2024-04-08T17:13:31.120Z,17.49
2024-04-08T17:15:58.494Z,17.19
2024-04-08T17:18:26.114Z,16.93
2024-04-08T17:20:57.315Z,16.77
2024-04-08T17:23:25.458Z,16.66
2024-04-08T17:25:54.060Z,16.53
2024-04-08T17:28:21.075Z,16.51
2024-04-08T17:30:58.648Z,16.33
2024-04-08T17:33:27.593Z,16.27
2024-04-08T17:36:02.806Z,16.15
2024-04-08T17:38:30.280Z,16.03
2024-04-08T17:41:01.439Z,15.90
2024-04-08T17:43:32.790Z,15.83
2024-04-08T17:46:04.135Z,15.64
2024-04-08T17:48:36.472Z,15.55
2024-04-08T17:51:05.442Z,15.41
2024-04-08T17:53:34.126Z,15.32
2024-04-08T17:56:02.830Z,15.14
2024-04-08T17:58:31.376Z,15.04
2024-04-08T18:01:05.296Z,14.94
2024-04-08T18:03:32.769Z,14.73
2024-04-08T18:06:24.169Z,14.74
2024-04-08T18:08:52.558Z,14.65
2024-04-08T18:11:22.244Z,14.51
2024-04-08T18:13:49.523Z,14.40
2024-04-08T18:16:21.882Z,14.36
2024-04-08T18:18:51.079Z,14.24
2024-04-08T18:21:19.750Z,14.16
2024-04-08T18:23:47.650Z,14.07
2024-04-08T18:26:20.245Z,13.90
2024-04-08T18:28:56.768Z,13.88
2024-04-08T18:31:23.747Z,13.75
2024-04-08T18:33:54.772Z,13.74
2024-04-08T18:36:21.953Z,13.68
2024-04-08T18:38:51.188Z,13.60
2024-04-08T18:41:19.783Z,13.52
2024-04-08T18:43:47.039Z,13.44
2024-04-08T18:46:24.424Z,13.34
2024-04-08T18:48:52.166Z,13.34
2024-04-08T18:51:19.276Z,13.25
2024-04-08T18:53:46.939Z,13.16
2024-04-08T18:56:14.191Z,13.10
2024-04-08T18:58:41.112Z,13.04
2024-04-08T19:01:16.557Z,13.00
2024-04-08T19:03:47.668Z,12.93
2024-04-08T19:06:14.998Z,12.85
2024-04-08T19:08:41.838Z,12.84
2024-04-08T19:11:08.821Z,12.77
2024-04-08T19:13:35.860Z,12.74
2024-04-08T19:16:06.332Z,12.69
2024-04-08T19:18:35.113Z,12.59
2024-04-08T19:21:09.360Z,12.62
2024-04-08T19:23:36.537Z,12.53
2024-04-08T19:26:04.755Z,12.50
2024-04-08T19:28:32.325Z,12.47
2024-04-08T19:31:00.359Z,12.38
2024-04-08T19:33:27.463Z,12.31
2024-04-08T19:35:57.945Z,12.21
2024-04-08T19:38:28.936Z,12.18
2024-04-08T19:41:03.606Z,12.14
2024-04-08T19:43:30.500Z,12.10
2024-04-08T19:46:06.352Z,12.08
2024-04-08T19:48:42.442Z,12.04
2024-04-08T19:51:16.651Z,11.91
2024-04-08T19:53:46.882Z,11.94
2024-04-08T19:56:19.752Z,11.91
2024-04-08T19:58:47.605Z,11.89
2024-04-08T20:01:14.624Z,11.74
2024-04-08T20:03:42.245Z,11.70
2024-04-08T20:06:09.719Z,11.55
2024-04-08T20:08:37.520Z,11.55
2024-04-08T20:11:06.659Z,11.51
2024-04-08T20:13:34.681Z,11.41
2024-04-08T20:16:22.561Z,11.44
2024-04-08T20:18:51.066Z,11.26
2024-04-08T20:21:21.026Z,11.32
2024-04-08T20:23:48.039Z,11.25
2024-04-08T20:26:15.020Z,11.21
2024-04-08T20:28:42.353Z,11.19
2024-04-08T20:31:10.054Z,11.05
2024-04-08T20:33:38.601Z,11.06
2024-04-08T20:36:08.068Z,11.00
2024-04-08T20:38:36.410Z,10.95
2024-04-08T20:41:05.691Z,10.95
2024-04-08T20:43:33.761Z,10.94
2024-04-08T20:46:00.818Z,10.92
2024-04-08T20:48:28.034Z,10.87
2024-04-08T20:50:59.866Z,10.72
2024-04-08T20:53:28.082Z,10.74
2024-04-08T20:55:59.679Z,10.69
2024-04-08T20:58:27.973Z,10.71
2024-04-08T21:00:57.281Z,10.61
2024-04-08T21:03:24.751Z,10.59
2024-04-08T21:06:05.206Z,10.55
2024-04-08T21:08:32.531Z,10.49
2024-04-08T21:11:01.011Z,10.48
2024-04-08T21:13:28.461Z,10.46
2024-04-08T21:15:59.609Z,10.42
2024-04-08T21:18:27.406Z,10.30
2024-04-08T21:21:05.032Z,10.34
2024-04-08T21:23:33.259Z,10.26
2024-04-08T21:26:14.800Z,10.24
2024-04-08T21:28:43.595Z,10.11
2024-04-08T21:31:11.480Z,10.12
2024-04-08T21:33:40.339Z,10.05
2024-04-08T21:36:08.556Z,10.01
2024-04-08T21:38:36.086Z,9.96
2024-04-08T21:41:11.166Z,9.89
2024-04-08T21:43:39.191Z,9.85
2024-04-08T21:46:07.631Z,9.85
2024-04-08T21:48:35.194Z,9.78
2024-04-08T21:51:05.761Z,9.75
2024-04-08T21:53:32.839Z,9.65
2024-04-08T21:56:05.319Z,9.66
2024-04-08T21:58:35.743Z,9.62
2024-04-08T22:01:07.155Z,9.58
2024-04-08T22:03:34.452Z,9.48
2024-04-08T22:06:02.501Z,9.44
2024-04-08T22:08:29.872Z,9.41
2024-04-08T22:10:57.738Z,9.44
2024-04-08T22:13:25.606Z,9.37
2024-04-08T22:15:53.188Z,9.37
2024-04-08T22:18:24.332Z,9.30
2024-04-08T22:20:52.584Z,9.24
2024-04-08T22:23:20.248Z,9.23
2024-04-08T22:25:47.598Z,9.19
2024-04-08T22:28:14.513Z,9.11
2024-04-08T22:30:42.357Z,9.06
2024-04-08T22:33:09.612Z,9.05
2024-04-08T22:35:37.195Z,9.00
2024-04-08T22:38:04.588Z,8.94
2024-04-08T22:40:31.607Z,8.90
2024-04-08T22:42:58.480Z,8.80
2024-04-08T22:45:26.419Z,8.75
2024-04-08T22:47:53.652Z,8.77
2024-04-08T22:50:22.007Z,8.73
2024-04-08T22:52:49.858Z,8.67
2024-04-08T22:55:16.914Z,8.71
2024-04-08T22:57:44.709Z,8.66
2024-04-08T23:00:13.999Z,8.65
2024-04-08T23:02:41.617Z,8.59
2024-04-08T23:05:09.569Z,8.58
2024-04-08T23:07:37.159Z,8.49
2024-04-08T23:10:05.200Z,8.53
2024-04-08T23:12:32.644Z,8.47
2024-04-08T23:14:59.760Z,8.47
2024-04-08T23:17:26.792Z,8.40
2024-04-08T23:19:53.724Z,8.40
2024-04-08T23:22:20.694Z,8.37
2024-04-08T23:24:47.912Z,8.35
2024-04-08T23:27:15.185Z,8.29
2024-04-08T23:29:42.227Z,8.17
2024-04-08T23:32:10.414Z,8.18
2024-04-08T23:34:37.850Z,8.18
2024-04-08T23:37:05.856Z,8.20
2024-04-08T23:39:32.888Z,8.18
2024-04-08T23:42:00.128Z,8.14
2024-04-08T23:44:28.278Z,8.11
2024-04-08T23:46:55.246Z,8.11
2024-04-08T23:49:22.288Z,8.13
2024-04-08T23:51:49.782Z,8.13
2024-04-08T23:54:16.859Z,8.07
2024-04-08T23:56:43.815Z,8.07
2024-04-08T23:59:10.849Z,8.01
